Time;durP1;ratioP1;P1;durP2;ratioP2;P2;SDS_P1;SDS_P2;PMS_P1;PMS_P2;Temp;Humidity;BMP_temperature;BMP_pressure;BME280_temperature;BME280_humidity;BME280_pressure;Samples;Min_cycle;Max_cycle;Signal;HPM_P1;HPM_P2
2023/04/29 00:00:16;;;;;;;5.20;1.80;;;;;;;10.40;46.72;100160.94;105715;1260;65453;-70
2023/04/29 00:02:43;;;;;;;6.90;1.90;;;;;;;10.38;46.74;100161.69;105648;1255;60377;-71
2023/04/29 00:05:10;;;;;;;4.40;1.60;;;;;;;10.36;46.82;100161.80;105769;1255;60459;-71
2023/04/29 00:07:38;;;;;;;3.40;1.50;;;;;;;10.34;47.02;100160.92;105626;1254;67735;-71
2023/04/29 00:10:05;;;;;;;4.20;1.70;;;;;;;10.31;46.95;100160.45;105683;1258;60761;-71
2023/04/29 00:12:32;;;;;;;4.70;1.70;;;;;;;10.29;47.18;100157.92;105683;1256;65558;-69
2023/04/29 00:15:01;;;;;;;3.50;1.60;;;;;;;10.30;47.08;100163.70;105573;1255;60447;-70
2023/04/29 00:17:28;;;;;;;3.80;1.80;;;;;;;10.28;47.05;100157.67;105647;1260;60363;-72
2023/04/29 00:19:55;;;;;;;2.90;1.50;;;;;;;10.28;47.00;100160.36;105686;1256;67774;-70
2023/04/29 00:22:22;;;;;;;3.40;1.60;;;;;;;10.26;46.98;100155.60;105731;1260;60431;-69
2023/04/29 00:24:50;;;;;;;5.00;1.70;;;;;;;10.23;47.10;100154.04;105560;1255;66715;-70
2023/04/29 00:27:17;;;;;;;3.60;1.60;;;;;;;10.20;47.00;100159.75;105615;1259;60441;-71
2023/04/29 00:29:45;;;;;;;2.10;1.40;;;;;;;10.18;46.91;100162.33;105625;1260;60342;-71
2023/04/29 00:32:12;;;;;;;3.00;1.60;;;;;;;10.18;46.91;100161.85;105545;1259;67550;-70
2023/04/29 00:34:39;;;;;;;2.90;1.40;;;;;;;10.16;46.81;100162.73;105717;1259;60374;-70
2023/04/29 00:37:06;;;;;;;3.70;1.60;;;;;;;10.15;46.90;100164.41;105656;1258;66399;-71
2023/04/29 00:39:33;;;;;;;5.60;1.80;;;;;;;10.12;47.04;100166.34;105585;1260;60604;-70
2023/04/29 00:42:02;;;;;;;3.90;1.90;;;;;;;10.10;47.10;100164.63;105689;1260;60411;-71
2023/04/29 00:44:29;;;;;;;3.00;1.50;;;;;;;10.09;47.14;100163.15;105587;1256;67759;-70
2023/04/29 00:46:56;;;;;;;3.80;1.50;;;;;;;10.06;47.19;100163.35;105547;1260;60934;-70
2023/04/29 00:49:23;;;;;;;4.40;1.70;;;;;;;10.03;47.20;100169.22;105660;1259;66455;-70
2023/04/29 00:51:50;;;;;;;3.40;1.60;;;;;;;10.01;47.19;100172.02;105638;1259;60469;-70
2023/04/29 00:54:17;;;;;;;3.20;1.60;;;;;;;10.00;47.29;100172.77;105460;1254;60465;-70
2023/04/29 00:56:46;;;;;;;4.80;1.60;;;;;;;9.99;47.29;100172.70;105691;1259;67700;-70
2023/04/29 00:59:15;;;;;;;4.30;1.70;;;;;;;9.97;47.27;100170.77;105723;1259;60427;-71
2023/04/29 01:01:43;;;;;;;3.70;1.60;;;;;;;9.94;47.27;100176.09;105693;1254;66571;-70
2023/04/29 01:04:12;;;;;;;3.80;1.30;;;;;;;9.92;47.33;100175.71;105357;1263;60511;-70
2023/04/29 01:07:02;;;;;;;5.30;1.60;;;;;;;9.90;47.35;100176.98;105644;1259;60373;-70
2023/04/29 01:09:33;;;;;;;3.50;1.70;;;;;;;9.87;47.38;100172.61;105544;1255;67783;-71
2023/04/29 01:12:21;;;;;;;4.40;1.70;;;;;;;9.85;47.46;100173.16;105617;1254;60338;-70
2023/04/29 01:14:57;;;;;;;5.00;1.60;;;;;;;9.82;47.43;100169.71;105637;1254;65493;-70
2023/04/29 01:17:25;;;;;;;7.30;1.80;;;;;;;9.81;47.32;100172.25;105423;1260;60502;-71
2023/04/29 01:19:56;;;;;;;2.80;1.70;;;;;;;9.81;47.37;100175.92;105595;1260;60363;-69
2023/04/29 01:22:23;;;;;;;5.40;1.60;;;;;;;9.81;47.36;100177.84;105442;1261;67689;-70
2023/04/29 01:24:50;;;;;;;4.20;1.70;;;;;;;9.79;47.42;100180.27;105449;1260;60457;-69
2023/04/29 01:27:57;;;;;;;3.70;1.50;;;;;;;9.78;47.45;100181.62;105566;1258;65474;-70
2023/04/29 01:30:33;;;;;;;3.30;1.60;;;;;;;9.75;47.27;100180.95;105454;1260;60449;-71
2023/04/29 01:33:11;;;;;;;4.70;1.70;;;;;;;9.75;47.34;100182.02;105572;1257;60547;-70
2023/04/29 01:35:50;;;;;;;4.30;1.60;;;;;;;9.74;47.44;100183.86;105626;1254;67608;-70
2023/04/29 01:39:02;;;;;;;2.90;1.30;;;;;;;9.71;47.42;100187.05;105625;1254;60796;-71
2023/04/29 01:41:42;;;;;;;3.20;1.40;;;;;;;9.68;47.51;100187.27;105326;1260;66600;-70
2023/04/29 01:44:17;;;;;;;;;;;;;;;9.67;47.63;100190.90;105597;1260;60486;-70
2023/04/29 01:46:53;;;;;;;3.80;1.70;;;;;;;9.64;47.66;100188.27;105722;1256;60542;-70
2023/04/29 01:49:26;;;;;;;3.60;1.50;;;;;;;9.62;47.68;100193.55;105493;1262;67772;-70
2023/04/29 01:51:54;;;;;;;2.90;1.50;;;;;;;9.62;47.71;100199.38;105573;1258;60489;-71
2023/04/29 01:54:24;;;;;;;3.70;1.40;;;;;;;9.60;47.76;100199.14;105630;1260;66262;-69
2023/04/29 01:56:51;;;;;;;3.20;1.50;;;;;;;9.60;47.81;100201.77;105622;1269;60435;-69
2023/04/29 01:59:47;;;;;;;2.40;1.60;;;;;;;9.59;47.87;100200.31;105124;1265;60403;-69
2023/04/29 02:02:34;;;;;;;3.90;1.40;;;;;;;9.53;47.97;100203.43;105610;1259;67682;-69
2023/04/29 02:05:10;;;;;;;3.70;1.60;;;;;;;9.48;48.19;100203.30;105783;1257;60923;-69
2023/04/29 02:07:41;;;;;;;3.00;1.60;;;;;;;9.45;48.12;100205.91;105709;1259;66574;-70
2023/04/29 02:10:09;;;;;;;2.80;1.80;;;;;;;9.44;48.14;100202.89;105453;1260;60905;-71
2023/04/29 02:12:36;;;;;;;4.60;1.60;;;;;;;9.43;48.29;100204.57;105684;1254;60390;-73
2023/04/29 02:15:07;;;;;;;2.40;1.40;;;;;;;9.42;48.40;100209.17;105617;1259;67409;-70
2023/04/29 02:17:34;;;;;;;2.90;1.60;;;;;;;9.41;48.42;100206.61;105650;1262;60497;-70
2023/04/29 02:20:02;;;;;;;5.10;1.90;;;;;;;9.38;48.40;100206.69;105408;1255;66599;-69
2023/04/29 02:22:29;;;;;;;6.00;1.70;;;;;;;9.36;48.43;100209.83;105575;1254;60442;-70
2023/04/29 02:24:57;;;;;;;3.60;1.50;;;;;;;9.34;48.35;100213.14;105661;1255;60348;-71
2023/04/29 02:27:26;;;;;;;4.90;1.70;;;;;;;9.32;48.42;100221.08;105507;1254;66594;-70
2023/04/29 02:29:53;;;;;;;2.50;1.50;;;;;;;9.30;48.46;100222.95;106564;1259;60617;-70
2023/04/29 02:32:20;;;;;;;3.40;1.50;;;;;;;9.28;48.48;100222.45;105608;1260;66312;-70
2023/04/29 02:34:48;;;;;;;3.70;1.70;;;;;;;9.26;48.60;100224.15;105590;1261;60543;-69
2023/04/29 02:37:15;;;;;;;3.00;1.50;;;;;;;9.26;48.60;100222.61;105651;1260;60467;-70
2023/04/29 02:39:42;;;;;;;3.40;1.70;;;;;;;9.24;48.58;100222.67;105527;1254;66589;-69
2023/04/29 02:42:11;;;;;;;2.70;1.60;;;;;;;9.26;48.50;100222.58;105642;1261;60409;-68
2023/04/29 02:44:38;;;;;;;3.40;1.40;;;;;;;9.25;48.61;100226.54;105699;1259;67002;-70
2023/04/29 02:47:06;;;;;;;4.90;1.70;;;;;;;9.22;48.62;100229.53;105699;1254;60491;-70
2023/04/29 02:49:33;;;;;;;5.80;1.50;;;;;;;9.21;48.68;100229.96;105645;1260;60461;-70
2023/04/29 02:51:59;;;;;;;3.10;1.80;;;;;;;9.21;48.66;100231.55;105670;1259;67536;-69
2023/04/29 02:54:26;;;;;;;4.80;1.60;;;;;;;9.21;48.71;100240.73;105507;1260;162620;-70
2023/04/29 02:56:53;;;;;;;2.90;1.60;;;;;;;9.20;48.63;100239.52;105641;1254;66419;-71
2023/04/29 02:59:21;;;;;;;4.10;1.60;;;;;;;9.20;48.67;100241.13;105743;1257;60539;-70
2023/04/29 03:01:48;;;;;;;2.90;1.80;;;;;;;9.24;48.49;100242.42;105768;1254;60421;-67
2023/04/29 03:04:15;;;;;;;4.00;1.70;;;;;;;9.25;48.47;100243.73;105476;1253;66449;-69
2023/04/29 03:06:42;;;;;;;4.30;1.70;;;;;;;9.25;48.55;100246.18;105686;1258;61137;-70
2023/04/29 03:09:11;;;;;;;4.20;1.50;;;;;;;9.20;48.58;100246.19;105732;1257;66638;-71
2023/04/29 03:11:38;;;;;;;4.10;1.60;;;;;;;9.15;48.71;100252.16;105640;1260;60450;-70
2023/04/29 03:14:05;;;;;;;3.80;1.80;;;;;;;9.14;48.70;100252.24;105672;1254;60352;-70
2023/04/29 03:16:32;;;;;;;3.60;1.50;;;;;;;9.16;48.68;100256.49;105646;1258;67381;-70
2023/04/29 03:18:59;;;;;;;2.40;1.40;;;;;;;9.13;48.74;100253.88;105468;1254;61011;-69
2023/04/29 03:21:26;;;;;;;2.60;1.60;;;;;;;9.14;48.81;100252.08;105393;1259;65544;-68
2023/04/29 03:23:53;;;;;;;3.20;1.50;;;;;;;9.17;48.80;100253.80;105538;1254;60457;-69
2023/04/29 03:26:25;;;;;;;3.70;1.50;;;;;;;9.19;48.73;100252.27;105686;1254;60424;-70
2023/04/29 03:28:52;;;;;;;5.00;1.70;;;;;;;9.19;48.74;100253.84;105653;1254;66625;-70
2023/04/29 03:31:21;;;;;;;4.30;1.90;;;;;;;9.19;48.74;100251.20;105680;1254;60937;-71
2023/04/29 03:33:49;;;;;;;4.80;1.90;;;;;;;9.20;48.74;100247.31;105395;1260;66330;-71
2023/04/29 03:36:16;;;;;;;3.30;1.60;;;;;;;9.21;48.71;100250.55;105408;1259;60463;-70
2023/04/29 03:38:57;;;;;;;4.80;1.90;;;;;;;9.22;48.67;100250.48;105595;1259;60657;-70
2023/04/29 03:41:24;;;;;;;3.00;1.70;;;;;;;9.22;48.65;100249.79;105777;1266;67663;-70
2023/04/29 03:43:51;;;;;;;4.90;1.80;;;;;;;9.20;48.77;100252.74;105676;1260;67699;-71
2023/04/29 03:46:18;;;;;;;4.60;1.80;;;;;;;9.21;48.77;100253.20;105536;1254;66579;-71
2023/04/29 03:48:45;;;;;;;7.20;1.90;;;;;;;9.22;48.71;100254.86;105726;1261;63069;-70
2023/04/29 03:51:13;;;;;;;2.10;1.60;;;;;;;9.23;48.71;100252.67;105745;1254;60460;-70
2023/04/29 03:53:40;;;;;;;4.40;1.70;;;;;;;9.23;48.71;100251.30;105863;1254;67814;-70
2023/04/29 03:56:07;;;;;;;3.80;1.70;;;;;;;9.26;48.62;100254.39;105699;1259;60738;-71
2023/04/29 03:58:34;;;;;;;4.80;1.80;;;;;;;9.28;48.55;100259.01;105501;1261;66552;-70
2023/04/29 04:01:01;;;;;;;3.90;1.80;;;;;;;9.29;48.53;100259.08;105385;1255;60443;-70
2023/04/29 04:03:32;;;;;;;4.30;1.50;;;;;;;9.26;48.48;100256.46;105502;1254;60431;-70
2023/04/29 04:05:59;;;;;;;3.80;1.50;;;;;;;9.26;48.49;100256.11;105666;1254;67715;-70
2023/04/29 04:08:26;;;;;;;2.80;1.60;;;;;;;9.30;48.61;100257.61;105539;1259;60558;-70
2023/04/29 04:11:01;;;;;;;5.30;1.80;;;;;;;9.33;48.68;100264.06;105681;1260;65374;-70
2023/04/29 04:13:35;;;;;;;2.90;1.50;;;;;;;9.35;48.61;100261.40;105668;1260;60526;-69
2023/04/29 04:16:02;;;;;;;3.30;1.90;;;;;;;9.40;48.62;100263.65;105634;1254;60485;-70
2023/04/29 04:18:30;;;;;;;3.20;1.70;;;;;;;9.45;48.58;100265.00;105428;1259;67520;-70
2023/04/29 04:20:57;;;;;;;3.60;1.40;;;;;;;9.49;48.55;100263.89;105538;1255;60820;-69
2023/04/29 04:23:24;;;;;;;2.80;1.60;;;;;;;9.48;48.62;100266.92;105777;1260;66559;-70
2023/04/29 04:25:52;;;;;;;3.10;1.60;;;;;;;9.49;48.55;100268.44;105740;1254;60510;-71
2023/04/29 04:28:42;;;;;;;4.00;1.80;;;;;;;9.52;48.38;100269.64;105484;1254;60512;-70
2023/04/29 04:31:15;;;;;;;3.80;1.70;;;;;;;9.53;48.29;100268.98;105713;1255;66509;-71
2023/04/29 04:33:42;;;;;;;2.90;1.80;;;;;;;9.53;48.25;100270.25;105759;1260;60532;-70
2023/04/29 04:36:09;;;;;;;5.00;1.80;;;;;;;9.52;48.28;100269.25;105616;1260;65515;-68
2023/04/29 04:38:37;;;;;;;2.80;1.50;;;;;;;9.53;48.40;100266.16;105831;1255;60561;-69
2023/04/29 04:41:07;;;;;;;4.10;1.90;;;;;;;9.54;48.50;100263.48;105281;1261;60393;-70
2023/04/29 04:43:36;;;;;;;5.40;2.10;;;;;;;9.53;48.67;100264.21;105662;1260;67380;-71
2023/04/29 04:46:13;;;;;;;4.00;1.50;;;;;;;9.54;48.64;100266.63;105628;1254;60891;-71
2023/04/29 04:48:53;;;;;;;3.40;1.80;;;;;;;9.56;48.70;100271.20;105405;1254;66531;-69
2023/04/29 04:51:20;;;;;;;2.30;1.60;;;;;;;9.58;48.74;100267.90;105451;1254;60577;-70
2023/04/29 04:53:47;;;;;;;5.80;1.80;;;;;;;9.60;48.77;100270.55;105636;1261;60403;-70
2023/04/29 04:56:19;;;;;;;5.40;1.40;;;;;;;9.63;48.74;100269.26;105777;1258;67752;-74
2023/04/29 04:58:46;;;;;;;5.10;1.70;;;;;;;9.67;48.52;100267.52;105616;1260;60305;-75
2023/04/29 05:01:13;;;;;;;3.90;1.70;;;;;;;9.72;48.30;100269.05;105639;1258;66468;-70
2023/04/29 05:03:40;;;;;;;3.10;1.80;;;;;;;9.75;48.19;100268.48;105605;1260;60444;-69
2023/04/29 05:06:07;;;;;;;2.60;1.60;;;;;;;9.79;48.20;100272.39;105551;1254;60518;-71
2023/04/29 05:08:35;;;;;;;2.90;1.60;;;;;;;9.84;48.11;100270.83;105451;1254;67321;-70
2023/04/29 05:11:02;;;;;;;3.40;1.50;;;;;;;9.87;48.19;100269.20;105758;1254;60906;-67
2023/04/29 05:13:29;;;;;;;2.00;1.60;;;;;;;9.91;48.13;100272.86;105517;1259;66738;-67
2023/04/29 05:15:56;;;;;;;5.60;2.40;;;;;;;9.94;47.99;100278.61;105329;1264;60981;-69
2023/04/29 05:18:25;;;;;;;18.60;15.00;;;;;;;9.99;48.07;100277.75;105680;1257;60623;-68
2023/04/29 05:20:53;;;;;;;6.80;4.70;;;;;;;10.04;48.25;100277.83;105504;1257;67393;-68
2023/04/29 05:23:21;;;;;;;3.90;2.40;;;;;;;10.03;48.28;100276.82;105495;1254;61087;-69
2023/04/29 05:25:49;;;;;;;4.60;2.30;;;;;;;10.07;48.39;100282.18;105390;1256;66564;-67
2023/04/29 05:28:16;;;;;;;2.80;1.70;;;;;;;10.21;48.29;100282.85;105458;1254;60690;-67
2023/04/29 05:30:43;;;;;;;4.70;1.70;;;;;;;10.27;48.39;100283.40;105620;1260;60531;-68
2023/04/29 05:33:11;;;;;;;3.90;1.60;;;;;;;10.34;48.33;100284.32;105601;1254;67628;-67
2023/04/29 05:35:38;;;;;;;2.90;1.40;;;;;;;10.42;48.34;100282.23;105545;1254;60904;-68
2023/04/29 05:38:05;;;;;;;2.40;1.30;;;;;;;10.51;48.34;100283.60;105507;1260;65142;-69
2023/04/29 05:40:37;;;;;;;2.70;1.40;;;;;;;10.57;48.12;100280.81;105641;1254;60485;-68
2023/04/29 05:43:30;;;;;;;2.50;1.40;;;;;;;10.62;48.10;100284.16;105338;1253;60379;-69
2023/04/29 05:45:59;;;;;;;3.60;1.50;;;;;;;10.65;48.22;100287.58;105487;1257;68053;-67
2023/04/29 05:48:27;;;;;;;2.20;1.30;;;;;;;10.72;48.24;100289.89;105626;1253;61947;-68
2023/04/29 05:50:54;;;;;;;1.70;1.10;;;;;;;10.76;48.16;100294.63;105571;1257;66516;-69
2023/04/29 05:53:21;;;;;;;4.20;1.20;;;;;;;10.77;48.26;100294.71;105588;1254;60521;-69
2023/04/29 05:55:49;;;;;;;3.40;1.30;;;;;;;10.78;48.32;100297.05;105629;1261;60387;-69
2023/04/29 05:58:19;;;;;;;2.50;1.30;;;;;;;10.81;48.36;100291.70;105666;1260;66840;-69
2023/04/29 06:00:48;;;;;;;2.50;1.30;;;;;;;10.86;48.41;100293.48;105719;1254;60527;-69
2023/04/29 06:03:18;;;;;;;3.40;1.30;;;;;;;10.91;48.44;100292.88;105607;1256;66830;-68
2023/04/29 06:05:49;;;;;;;2.60;1.30;;;;;;;10.95;48.43;100292.18;105621;1259;60491;-68
2023/04/29 06:08:19;;;;;;;2.40;1.30;;;;;;;10.98;48.48;100294.55;105670;1258;60594;-76
2023/04/29 06:10:51;;;;;;;4.20;1.40;;;;;;;11.02;48.50;100299.00;105502;1254;66604;-68
2023/04/29 06:13:19;;;;;;;4.00;1.40;;;;;;;11.07;48.56;100300.20;105691;1254;60763;-68
2023/04/29 06:15:46;;;;;;;6.10;1.50;;;;;;;11.12;48.36;100304.17;105477;1259;65401;-69
2023/04/29 06:18:13;;;;;;;4.20;1.50;;;;;;;11.18;48.45;100306.27;105582;1254;60635;-69
2023/04/29 06:20:41;;;;;;;3.00;1.30;;;;;;;11.24;48.38;100309.71;105679;1257;60540;-69
2023/04/29 06:23:08;;;;;;;4.70;1.40;;;;;;;11.29;48.16;100309.82;105560;1260;67668;-68
2023/04/29 06:25:36;;;;;;;5.00;1.20;;;;;;;11.36;48.17;100312.05;105480;1254;60667;-69
2023/04/29 06:28:07;;;;;;;1.80;1.20;;;;;;;11.43;48.07;100308.63;105577;1258;66272;-70
2023/04/29 06:30:35;;;;;;;5.40;2.00;;;;;;;11.50;47.69;100308.60;105489;1260;60533;-68
2023/04/29 06:33:03;;;;;;;4.20;1.40;;;;;;;11.55;47.55;100308.45;105601;1260;60507;-69
2023/04/29 06:35:30;;;;;;;3.30;1.40;;;;;;;11.60;47.02;100309.97;105516;1260;67765;-68
2023/04/29 06:38:06;;;;;;;1.80;1.20;;;;;;;11.67;46.32;100310.88;105551;1254;60987;-68
2023/04/29 06:41:00;;;;;;;5.50;1.40;;;;;;;11.74;46.34;100317.09;105603;1254;66387;-69
2023/04/29 06:43:42;;;;;;;2.80;1.40;;;;;;;11.84;46.06;100315.71;105680;1260;60450;-69
2023/04/29 06:46:34;;;;;;;4.60;1.10;;;;;;;11.99;45.98;100316.58;105589;1260;60370;-70
2023/04/29 06:49:27;;;;;;;4.60;1.30;;;;;;;12.17;45.73;100324.00;105346;1254;66352;-69
2023/04/29 06:51:55;;;;;;;3.40;1.30;;;;;;;12.36;45.47;100323.70;105633;1254;60702;-69
2023/04/29 06:54:26;;;;;;;3.70;1.10;;;;;;;12.59;45.04;100316.80;105581;1260;66658;-68
2023/04/29 06:56:53;;;;;;;8.70;1.30;;;;;;;12.79;44.23;100317.52;105609;1255;61007;-69
2023/04/29 06:59:20;;;;;;;2.80;1.20;;;;;;;13.00;43.82;100315.41;105680;1254;61115;-68
2023/04/29 07:01:47;;;;;;;2.90;1.20;;;;;;;13.17;43.06;100317.91;105678;1254;66834;-68
2023/04/29 07:04:18;;;;;;;2.10;1.10;;;;;;;13.34;42.86;100320.08;105735;1254;60726;-68
2023/04/29 07:06:47;;;;;;;2.50;1.00;;;;;;;13.49;42.16;100315.70;105695;1259;66414;-68
2023/04/29 07:09:14;;;;;;;1.80;1.00;;;;;;;13.61;41.63;100317.55;105680;1254;60593;-68
2023/04/29 07:11:41;;;;;;;2.00;1.20;;;;;;;13.72;40.92;100318.64;105639;1259;60396;-68
2023/04/29 07:14:07;;;;;;;1.60;1.00;;;;;;;13.85;40.84;100321.57;105635;1254;68037;-68
2023/04/29 07:16:34;;;;;;;3.30;1.20;;;;;;;14.00;41.44;100323.48;105600;1254;61010;-68
2023/04/29 07:19:01;;;;;;;2.90;1.50;;;;;;;14.15;40.57;100322.92;105708;1258;65390;-68
2023/04/29 07:21:29;;;;;;;2.40;1.20;;;;;;;14.28;39.81;100320.27;105560;1254;60360;-69
2023/04/29 07:23:59;;;;;;;4.50;1.20;;;;;;;14.36;39.13;100317.87;105643;1253;60562;-71
2023/04/29 07:26:27;;;;;;;2.30;1.00;;;;;;;14.39;38.58;100322.24;105757;1259;67631;-69
2023/04/29 07:28:54;;;;;;;1.80;1.10;;;;;;;14.40;38.03;100327.50;105584;1257;60462;-68
2023/04/29 07:31:22;;;;;;;1.80;1.00;;;;;;;14.41;38.08;100328.24;105526;1257;66576;-71
2023/04/29 07:33:50;;;;;;;2.50;1.20;;;;;;;14.46;38.19;100330.78;105654;1253;60514;-71
2023/04/29 07:36:17;;;;;;;2.40;1.20;;;;;;;14.49;38.02;100333.66;105729;1254;60377;-70
2023/04/29 07:38:44;;;;;;;4.00;1.20;;;;;;;14.54;37.47;100330.48;105786;1254;66310;-70
2023/04/29 07:41:11;;;;;;;2.10;1.10;;;;;;;14.59;36.80;100332.18;105713;1254;60464;-70
2023/04/29 07:43:38;;;;;;;3.50;1.20;;;;;;;14.65;36.52;100332.45;105413;1260;66507;-69
2023/04/29 07:46:08;;;;;;;3.90;1.20;;;;;;;14.78;36.40;100332.65;105421;1261;60413;-70
2023/04/29 07:48:39;;;;;;;3.70;1.10;;;;;;;14.93;36.57;100337.05;105609;1254;60434;-69
2023/04/29 07:51:06;;;;;;;2.60;0.90;;;;;;;15.08;36.57;100337.09;105525;1253;67808;-72
2023/04/29 07:53:33;;;;;;;2.80;1.00;;;;;;;15.22;35.97;100332.74;105610;1254;60617;-69
2023/04/29 07:56:04;;;;;;;5.90;1.00;;;;;;;15.26;34.96;100336.05;105724;1258;66319;-71
2023/04/29 07:58:31;;;;;;;2.50;1.00;;;;;;;15.22;34.05;100328.16;105757;1254;60433;-71
2023/04/29 08:01:09;;;;;;;2.60;0.90;;;;;;;15.14;33.96;100336.90;105757;1254;60543;-71
2023/04/29 08:03:36;;;;;;;2.70;1.00;;;;;;;15.05;34.07;100338.65;105668;1254;67901;-72
2023/04/29 08:06:07;;;;;;;1.70;1.00;;;;;;;14.99;34.27;100338.73;105643;1254;60722;-69
2023/04/29 08:08:34;;;;;;;2.70;1.20;;;;;;;14.91;34.14;100334.52;105719;1254;66801;-69
2023/04/29 08:11:01;;;;;;;2.00;1.10;;;;;;;14.86;34.34;100332.04;105693;1256;60386;-69
2023/04/29 08:13:28;;;;;;;4.30;1.00;;;;;;;14.84;34.71;100331.85;105740;1254;60540;-71
2023/04/29 08:15:55;;;;;;;4.30;1.10;;;;;;;14.83;34.88;100334.59;105776;1254;66632;-70
2023/04/29 08:18:22;;;;;;;6.00;1.00;;;;;;;14.86;34.89;100334.90;105569;1254;60600;-71
2023/04/29 08:20:50;;;;;;;3.40;1.00;;;;;;;14.88;34.17;100339.76;105597;1254;65678;-70
2023/04/29 08:23:16;;;;;;;4.50;1.10;;;;;;;14.92;33.87;100338.58;105781;1257;60434;-71
2023/04/29 08:25:44;;;;;;;2.90;0.90;;;;;;;14.98;34.05;100337.77;105748;1253;60520;-69
2023/04/29 08:28:11;;;;;;;3.10;1.10;;;;;;;15.07;33.68;100336.87;105718;1253;67642;-69
2023/04/29 08:30:39;;;;;;;5.80;1.10;;;;;;;15.17;33.77;100327.86;105832;1260;60570;-70
2023/04/29 08:33:07;;;;;;;2.80;1.00;;;;;;;15.27;33.76;100329.18;105444;1260;65525;-70
2023/04/29 08:35:36;;;;;;;2.20;0.90;;;;;;;15.34;33.44;100327.02;105782;1254;60543;-69
2023/04/29 08:38:07;;;;;;;2.20;0.90;;;;;;;15.31;33.24;100334.97;105662;1254;60578;-72
2023/04/29 08:40:35;;;;;;;2.70;0.90;;;;;;;15.25;33.31;100337.56;105795;1254;66446;-70
2023/04/29 08:43:02;;;;;;;2.90;0.90;;;;;;;15.18;33.19;100342.45;105734;1254;60589;-68
2023/04/29 08:45:30;;;;;;;1.60;0.80;;;;;;;15.15;32.82;100343.16;105696;1259;65326;-70
2023/04/29 08:47:57;;;;;;;1.90;0.80;;;;;;;15.09;32.15;100341.75;105671;1254;60485;-70
2023/04/29 08:50:24;;;;;;;1.90;0.80;;;;;;;15.04;32.27;100339.77;105621;1254;60391;-70
2023/04/29 08:52:51;;;;;;;2.50;1.00;;;;;;;15.04;32.67;100333.05;105672;1254;67359;-70
2023/04/29 08:55:18;;;;;;;2.20;1.00;;;;;;;15.04;32.32;100334.64;105814;1260;60502;-70
2023/04/29 08:57:45;;;;;;;1.70;1.00;;;;;;;15.02;31.56;100332.56;105771;1255;66080;-72
2023/04/29 09:00:12;;;;;;;3.20;1.00;;;;;;;15.00;31.84;100331.42;105655;1259;60444;-71
2023/04/29 09:02:45;;;;;;;1.90;0.90;;;;;;;15.01;32.68;100332.36;105862;1254;60360;-70
2023/04/29 09:05:12;;;;;;;3.10;0.90;;;;;;;15.06;33.41;100330.40;105691;1257;67419;-71
2023/04/29 09:07:39;;;;;;;4.10;1.10;;;;;;;15.08;32.44;100328.96;105571;1258;60371;-70
2023/04/29 09:10:06;;;;;;;2.10;1.00;;;;;;;15.06;32.75;100327.36;105672;1257;65397;-70
2023/04/29 09:12:34;;;;;;;3.20;1.00;;;;;;;15.13;32.39;100322.57;105528;1254;60504;-70
2023/04/29 09:15:02;;;;;;;2.00;0.70;;;;;;;15.19;32.46;100315.66;105807;1254;60587;-70
2023/04/29 09:17:42;;;;;;;3.10;1.20;;;;;;;15.29;32.56;100314.77;105677;1257;67567;-70
2023/04/29 09:20:21;;;;;;;4.90;1.10;;;;;;;15.46;32.42;100311.70;105637;1254;60888;-70
2023/04/29 09:22:52;;;;;;;2.20;1.00;;;;;;;15.60;32.39;100306.66;105816;1257;66487;-71
2023/04/29 09:25:20;;;;;;;1.90;1.00;;;;;;;15.72;31.93;100307.09;105775;1259;60876;-71
2023/04/29 09:27:47;;;;;;;4.90;1.00;;;;;;;15.87;32.57;100307.16;105836;1257;60375;-69
2023/04/29 09:30:15;;;;;;;3.90;0.80;;;;;;;16.00;32.07;100302.80;105737;1257;67629;-70
2023/04/29 09:32:43;;;;;;;2.50;1.10;;;;;;;16.15;32.59;100300.67;105730;1258;60727;-72
2023/04/29 09:35:20;;;;;;;2.00;1.10;;;;;;;16.35;32.86;100298.39;105770;1254;65335;-73
2023/04/29 09:37:47;;;;;;;2.50;0.80;;;;;;;16.59;32.75;100299.65;105733;1259;60545;-72
2023/04/29 09:40:30;;;;;;;1.70;0.90;;;;;;;16.85;32.23;100296.66;105656;1254;60456;-71
2023/04/29 09:42:58;;;;;;;3.50;1.10;;;;;;;17.11;31.50;100289.95;105710;1254;67697;-70
2023/04/29 09:45:35;;;;;;;1.60;0.80;;;;;;;17.26;30.63;100283.39;105650;1260;60538;-70
2023/04/29 09:48:03;;;;;;;2.30;0.80;;;;;;;17.27;29.92;100279.11;105633;1260;66655;-70
2023/04/29 09:50:31;;;;;;;2.20;0.90;;;;;;;17.23;29.53;100277.78;105667;1254;60891;-71
2023/04/29 09:52:58;;;;;;;3.10;0.90;;;;;;;17.17;29.50;100279.75;105782;1254;60332;-70
2023/04/29 09:55:26;;;;;;;2.30;0.90;;;;;;;17.11;29.66;100273.59;105805;1255;67480;-71
2023/04/29 09:57:53;;;;;;;2.70;0.70;;;;;;;17.14;30.41;100270.03;105851;1257;60699;-70
2023/04/29 10:00:19;;;;;;;3.40;1.00;;;;;;;17.21;30.18;100267.88;105823;1257;66151;-72
2023/04/29 10:02:47;;;;;;;2.00;1.10;;;;;;;17.24;30.38;100267.97;105693;1259;60373;-70
2023/04/29 10:05:14;;;;;;;2.90;0.80;;;;;;;17.25;30.74;100264.40;105585;1253;60531;-70
2023/04/29 10:07:42;;;;;;;1.60;0.90;;;;;;;17.30;30.57;100263.20;105552;1259;67578;-70
2023/04/29 10:10:09;;;;;;;2.10;1.00;;;;;;;17.29;30.27;100261.52;105817;1254;60729;-70
2023/04/29 10:12:37;;;;;;;4.70;1.10;;;;;;;17.29;30.41;100256.88;105754;1254;66355;-71
2023/04/29 10:15:04;;;;;;;1.50;0.90;;;;;;;17.33;30.33;100251.73;105756;1257;60501;-71
2023/04/29 10:17:55;;;;;;;2.60;0.90;;;;;;;17.40;30.72;100254.55;105603;1257;60999;-71
2023/04/29 10:20:23;;;;;;;1.80;0.80;;;;;;;17.52;31.14;100260.34;105798;1254;66289;-71
2023/04/29 10:22:51;;;;;;;1.90;0.90;;;;;;;17.61;30.63;100261.00;105713;1254;60952;-72
2023/04/29 10:25:20;;;;;;;1.60;1.00;;;;;;;17.65;31.00;100263.17;105800;1254;66119;-70
2023/04/29 10:27:47;;;;;;;1.50;1.00;;;;;;;17.70;30.25;100261.20;105660;1257;60558;-70
2023/04/29 10:30:16;;;;;;;4.60;0.90;;;;;;;17.69;30.50;100259.54;105706;1254;60357;-71
2023/04/29 10:32:44;;;;;;;3.20;0.90;;;;;;;17.74;30.51;100253.64;105832;1257;67857;-71
2023/04/29 10:35:21;;;;;;;3.00;1.00;;;;;;;17.78;30.04;100251.80;105695;1254;61053;-71
2023/04/29 10:37:49;;;;;;;1.30;0.70;;;;;;;17.79;29.87;100247.09;105404;1253;65230;-72
2023/04/29 10:40:30;;;;;;;2.60;0.90;;;;;;;17.79;29.63;100250.54;105646;1254;60529;-71
2023/04/29 10:42:57;;;;;;;1.70;1.00;;;;;;;17.78;29.73;100245.44;105634;1253;60479;-70
2023/04/29 10:45:31;;;;;;;2.00;1.00;;;;;;;17.75;29.63;100244.48;105669;1258;67361;-69
2023/04/29 10:48:01;;;;;;;2.00;0.90;;;;;;;17.73;29.58;100246.80;105688;1254;60868;-70
2023/04/29 10:50:29;;;;;;;3.00;1.30;;;;;;;17.72;29.02;100245.45;105739;1254;66258;-71
2023/04/29 10:52:56;;;;;;;3.30;0.90;;;;;;;17.73;28.60;100246.09;105652;1254;60454;-71
2023/04/29 10:55:23;;;;;;;4.40;1.00;;;;;;;17.76;28.67;100247.06;105678;1254;60376;-69
2023/04/29 10:57:57;;;;;;;2.60;1.00;;;;;;;17.83;28.87;100245.23;105647;1258;67862;-69
2023/04/29 11:00:29;;;;;;;1.30;0.90;;;;;;;17.96;28.98;100247.67;105699;1259;60617;-71
2023/04/29 11:02:57;;;;;;;1.70;0.80;;;;;;;18.12;28.87;100238.91;105757;1254;65684;-71
2023/04/29 11:05:32;;;;;;;3.30;1.10;;;;;;;18.24;28.93;100238.27;105580;1259;60427;-70
2023/04/29 11:08:22;;;;;;;3.30;1.00;;;;;;;18.36;28.79;100236.00;105731;1254;60514;-71
2023/04/29 11:10:53;;;;;;;2.60;1.20;;;;;;;18.44;28.94;100230.77;105806;1259;67772;-71
2023/04/29 11:13:30;;;;;;;3.30;0.90;;;;;;;18.51;28.88;100231.70;105713;1253;60632;-72
2023/04/29 11:16:04;;;;;;;1.60;0.70;;;;;;;18.62;29.00;100230.08;105728;1253;66439;-70
2023/04/29 11:18:31;;;;;;;2.50;0.70;;;;;;;18.76;28.83;100223.54;105717;1253;60556;-72
2023/04/29 11:21:07;;;;;;;2.40;0.80;;;;;;;18.94;27.95;100214.98;105768;1259;60368;-71
2023/04/29 11:23:35;;;;;;;2.60;0.80;;;;;;;19.20;28.15;100207.95;105629;1259;67365;-73
2023/04/29 11:26:02;;;;;;;3.80;1.00;;;;;;;19.53;27.47;100207.44;105620;1259;60608;-69
2023/04/29 11:28:30;;;;;;;1.00;0.70;;;;;;;19.76;26.71;100207.11;105644;1259;66563;-72
2023/04/29 11:30:57;;;;;;;3.00;0.90;;;;;;;19.98;26.75;100207.92;105572;1253;60363;-72